Long Branch, Texas
Current Conditions -  °F | °C
As of 3:35 PM on Friday 19 Dec 2014 (Local Time) from KRFI Reporting Station
Overcast Overcast  
Wind Chill: 44°   Ceiling: 400
Heat Index: 48°   Visibility: 10mi
Dew Point: 47°   Wind: 9mph
Humidity: 97%   Direction: 30°NNE
Pressure: 30.12"   Gusts: NA
Location:  32°N, 94.53°W
Report Text: KRFI 192135Z AUTO 03008KT 360V060 10SM OVC004 09/09 A3012 RMK AO2 T00900086
Loading
Personal Weather Stations






























Interactive Weather Map New forecast layout! Learn more

10-Day Weather Forecast

Advertisements
Track Severe Weather on mobile